sensor_id;sensor_type;location;lat;lon;timestamp;pressure;altitude;pressure_sealevel;temperature;humidity
17764;BME280;22245;52.832;13.816;2022-10-31T00:01:30;101702.38;;;10.22;84.78
17764;BME280;22245;52.832;13.816;2022-10-31T00:04:52;101707.72;;;10.22;85.01
17764;BME280;22245;52.832;13.816;2022-10-31T00:08:19;101704.31;;;10.20;85.05
17764;BME280;22245;52.832;13.816;2022-10-31T00:11:41;101697.50;;;10.16;84.63
17764;BME280;22245;52.832;13.816;2022-10-31T00:15:03;101695.03;;;10.13;84.54
17764;BME280;22245;52.832;13.816;2022-10-31T00:18:25;101700.56;;;10.10;85.38
17764;BME280;22245;52.832;13.816;2022-10-31T00:21:51;101699.94;;;10.06;85.04
17764;BME280;22245;52.832;13.816;2022-10-31T00:25:14;101695.69;;;10.04;85.67
17764;BME280;22245;52.832;13.816;2022-10-31T00:28:35;101706.53;;;10.01;85.52
17764;BME280;22245;52.832;13.816;2022-10-31T00:31:57;101702.47;;;9.95;85.58
17764;BME280;22245;52.832;13.816;2022-10-31T00:35:19;101710.44;;;9.95;85.25
17764;BME280;22245;52.832;13.816;2022-10-31T00:38:41;101714.94;;;9.94;85.55
17764;BME280;22245;52.832;13.816;2022-10-31T00:42:04;101714.94;;;9.94;84.97
17764;BME280;22245;52.832;13.816;2022-10-31T00:45:26;101703.75;;;9.89;85.33
17764;BME280;22245;52.832;13.816;2022-10-31T00:48:49;101711.06;;;9.85;85.22
17764;BME280;22245;52.832;13.816;2022-10-31T00:52:23;101710.13;;;9.87;85.05
17764;BME280;22245;52.832;13.816;2022-10-31T00:55:44;101710.22;;;9.85;84.79
17764;BME280;22245;52.832;13.816;2022-10-31T00:59:07;101720.75;;;9.87;84.74
17764;BME280;22245;52.832;13.816;2022-10-31T01:02:29;101721.50;;;9.89;84.75
17764;BME280;22245;52.832;13.816;2022-10-31T01:05:58;101730.25;;;9.91;84.29
17764;BME280;22245;52.832;13.816;2022-10-31T01:09:20;101726.75;;;9.90;84.26
17764;BME280;22245;52.832;13.816;2022-10-31T01:12:43;101721.63;;;9.87;84.42
17764;BME280;22245;52.832;13.816;2022-10-31T01:16:11;101724.59;;;9.82;83.95
17764;BME280;22245;52.832;13.816;2022-10-31T01:19:33;101721.81;;;9.84;83.83
17764;BME280;22245;52.832;13.816;2022-10-31T01:22:58;101720.97;;;9.83;83.90
17764;BME280;22245;52.832;13.816;2022-10-31T01:26:21;101721.06;;;9.82;83.57
17764;BME280;22245;52.832;13.816;2022-10-31T01:29:44;101716.91;;;9.78;83.34
17764;BME280;22245;52.832;13.816;2022-10-31T01:33:07;101726.50;;;9.80;83.44
17764;BME280;22245;52.832;13.816;2022-10-31T01:36:31;101732.66;;;9.81;82.77
17764;BME280;22245;52.832;13.816;2022-10-31T01:39:53;101740.63;;;9.81;83.06
17764;BME280;22245;52.832;13.816;2022-10-31T01:43:15;101740.75;;;9.79;82.63
17764;BME280;22245;52.832;13.816;2022-10-31T01:46:41;101740.09;;;9.76;82.44
17764;BME280;22245;52.832;13.816;2022-10-31T01:50:11;101739.44;;;9.72;82.43
17764;BME280;22245;52.832;13.816;2022-10-31T01:53:33;101732.50;;;9.69;82.16
17764;BME280;22245;52.832;13.816;2022-10-31T01:56:57;101746.31;;;9.62;82.36
17764;BME280;22245;52.832;13.816;2022-10-31T02:00:20;101738.66;;;9.57;82.63
17764;BME280;22245;52.832;13.816;2022-10-31T02:03:42;101734.47;;;9.53;82.75
17764;BME280;22245;52.832;13.816;2022-10-31T02:07:08;101744.56;;;9.48;82.91
17764;BME280;22245;52.832;13.816;2022-10-31T02:10:33;101743.91;;;9.44;82.78
17764;BME280;22245;52.832;13.816;2022-10-31T02:13:55;101740.56;;;9.40;83.15
17764;BME280;22245;52.832;13.816;2022-10-31T02:17:18;101750.56;;;9.37;83.20
17764;BME280;22245;52.832;13.816;2022-10-31T02:20:46;101745.66;;;9.31;83.18
17764;BME280;22245;52.832;13.816;2022-10-31T02:24:39;101746.88;;;9.25;83.75
17764;BME280;22245;52.832;13.816;2022-10-31T02:28:19;101753.78;;;9.27;83.85
17764;BME280;22245;52.832;13.816;2022-10-31T02:31:54;101759.97;;;9.28;83.38
17764;BME280;22245;52.832;13.816;2022-10-31T02:35:26;101764.34;;;9.29;83.06
17764;BME280;22245;52.832;13.816;2022-10-31T02:38:59;101762.56;;;9.30;82.95
17764;BME280;22245;52.832;13.816;2022-10-31T02:42:37;101757.31;;;9.28;82.90
17764;BME280;22245;52.832;13.816;2022-10-31T02:46:07;101757.41;;;9.26;82.63
17764;BME280;22245;52.832;13.816;2022-10-31T02:49:38;101757.72;;;9.22;82.67
17764;BME280;22245;52.832;13.816;2022-10-31T02:53:02;101749.06;;;9.18;82.67
17764;BME280;22245;52.832;13.816;2022-10-31T02:56:24;101756.41;;;9.15;82.35
17764;BME280;22245;52.832;13.816;2022-10-31T02:59:47;101747.88;;;9.09;83.07
17764;BME280;22245;52.832;13.816;2022-10-31T03:03:13;101749.09;;;9.04;83.36
17764;BME280;22245;52.832;13.816;2022-10-31T03:06:41;101755.44;;;9.01;83.64
17764;BME280;22245;52.832;13.816;2022-10-31T03:10:14;101751.19;;;8.98;83.78
17764;BME280;22245;52.832;13.816;2022-10-31T03:13:41;101756.59;;;8.97;83.55
17764;BME280;22245;52.832;13.816;2022-10-31T03:17:11;101760.94;;;8.98;83.72
17764;BME280;22245;52.832;13.816;2022-10-31T03:20:38;101756.69;;;8.95;83.49
17764;BME280;22245;52.832;13.816;2022-10-31T03:24:04;101757.84;;;8.91;83.51
17764;BME280;22245;52.832;13.816;2022-10-31T03:27:29;101766.75;;;8.90;83.57
17764;BME280;22245;52.832;13.816;2022-10-31T03:30:54;101756.97;;;8.91;83.55
17764;BME280;22245;52.832;13.816;2022-10-31T03:34:17;101760.50;;;8.91;83.13
17764;BME280;22245;52.832;13.816;2022-10-31T03:37:40;101769.31;;;8.92;83.33
17764;BME280;22245;52.832;13.816;2022-10-31T03:41:10;101768.56;;;8.90;83.08
17764;BME280;22245;52.832;13.816;2022-10-31T03:44:34;101781.06;;;8.88;82.77
17764;BME280;22245;52.832;13.816;2022-10-31T03:47:58;101769.97;;;8.81;82.86
17764;BME280;22245;52.832;13.816;2022-10-31T03:51:25;101772.91;;;8.76;82.87
17764;BME280;22245;52.832;13.816;2022-10-31T03:54:53;101778.31;;;8.75;83.24
17764;BME280;22245;52.832;13.816;2022-10-31T03:58:21;101777.47;;;8.74;82.87
17764;BME280;22245;52.832;13.816;2022-10-31T04:01:48;101786.09;;;8.78;82.78
17764;BME280;22245;52.832;13.816;2022-10-31T04:05:12;101783.53;;;8.76;82.71
17764;BME280;22245;52.832;13.816;2022-10-31T04:08:39;101789.63;;;8.78;82.65
17764;BME280;22245;52.832;13.816;2022-10-31T04:12:07;101797.47;;;8.80;82.41
17764;BME280;22245;52.832;13.816;2022-10-31T04:16:05;101815.88;;;8.83;81.77
17764;BME280;22245;52.832;13.816;2022-10-31T04:19:33;101813.34;;;8.81;81.60
17764;BME280;22245;52.832;13.816;2022-10-31T04:22:55;101822.25;;;8.80;81.65
17764;BME280;22245;52.832;13.816;2022-10-31T04:26:17;101821.38;;;8.80;81.80
17764;BME280;22245;52.832;13.816;2022-10-31T04:29:39;101818.16;;;8.75;81.28
17764;BME280;22245;52.832;13.816;2022-10-31T04:33:07;101821.25;;;8.67;81.75
17764;BME280;22245;52.832;13.816;2022-10-31T04:36:29;101818.03;;;8.62;82.15
17764;BME280;22245;52.832;13.816;2022-10-31T04:39:50;101820.09;;;8.57;82.74
17764;BME280;22245;52.832;13.816;2022-10-31T04:43:31;101817.72;;;8.52;82.91
17764;BME280;22245;52.832;13.816;2022-10-31T04:46:53;101822.34;;;8.48;83.22
17764;BME280;22245;52.832;13.816;2022-10-31T04:50:17;101814.44;;;8.47;83.63
17764;BME280;22245;52.832;13.816;2022-10-31T04:53:40;101807.44;;;8.46;83.66
17764;BME280;22245;52.832;13.816;2022-10-31T04:57:20;101806.59;;;8.45;83.67
17764;BME280;22245;52.832;13.816;2022-10-31T05:00:42;101798.69;;;8.44;84.74
17764;BME280;22245;52.832;13.816;2022-10-31T05:04:04;101804.97;;;8.43;84.51
17764;BME280;22245;52.832;13.816;2022-10-31T05:07:27;101815.69;;;8.41;84.30
17764;BME280;22245;52.832;13.816;2022-10-31T05:10:48;101816.53;;;8.42;84.33
17764;BME280;22245;52.832;13.816;2022-10-31T05:14:09;101830.56;;;8.44;83.74
17764;BME280;22245;52.832;13.816;2022-10-31T05:18:09;101835.69;;;8.47;83.03
17764;BME280;22245;52.832;13.816;2022-10-31T05:21:49;101831.25;;;8.47;82.67
17764;BME280;22245;52.832;13.816;2022-10-31T05:25:14;101826.13;;;8.44;82.49
17764;BME280;22245;52.832;13.816;2022-10-31T05:28:35;101823.53;;;8.43;82.20
17764;BME280;22245;52.832;13.816;2022-10-31T05:31:57;101828.19;;;8.39;82.31
17764;BME280;22245;52.832;13.816;2022-10-31T05:35:50;101828.38;;;8.36;82.67
17764;BME280;22245;52.832;13.816;2022-10-31T05:39:24;101836.41;;;8.34;82.68
17764;BME280;22245;52.832;13.816;2022-10-31T05:42:52;101827.63;;;8.34;82.79
17764;BME280;22245;52.832;13.816;2022-10-31T05:46:15;101846.97;;;8.36;82.24
17764;BME280;22245;52.832;13.816;2022-10-31T05:49:56;101843.34;;;8.37;82.52
17764;BME280;22245;52.832;13.816;2022-10-31T05:53:37;101846.00;;;8.37;82.37
17764;BME280;22245;52.832;13.816;2022-10-31T05:56:59;101853.09;;;8.36;82.55
17764;BME280;22245;52.832;13.816;2022-10-31T06:00:23;101840.72;;;8.37;82.49
17764;BME280;22245;52.832;13.816;2022-10-31T06:03:45;101847.91;;;8.35;82.69
17764;BME280;22245;52.832;13.816;2022-10-31T06:07:09;101846.19;;;8.34;82.96
17764;BME280;22245;52.832;13.816;2022-10-31T06:10:30;101851.66;;;8.31;83.03
17764;BME280;22245;52.832;13.816;2022-10-31T06:13:52;101850.72;;;8.32;83.29
17764;BME280;22245;52.832;13.816;2022-10-31T06:17:25;101853.28;;;8.33;83.35
17764;BME280;22245;52.832;13.816;2022-10-31T06:21:06;101859.38;;;8.35;83.36
17764;BME280;22245;52.832;13.816;2022-10-31T06:24:28;101866.31;;;8.38;83.47
17764;BME280;22245;52.832;13.816;2022-10-31T06:27:57;101873.97;;;8.43;83.21
17764;BME280;22245;52.832;13.816;2022-10-31T06:31:28;101880.94;;;8.45;83.13
17764;BME280;22245;52.832;13.816;2022-10-31T06:34:54;101884.25;;;8.49;83.51
17764;BME280;22245;52.832;13.816;2022-10-31T06:38:19;101884.19;;;8.50;83.63
17764;BME280;22245;52.832;13.816;2022-10-31T06:41:41;101889.25;;;8.55;83.50
17764;BME280;22245;52.832;13.816;2022-10-31T06:45:04;101884.78;;;8.56;83.87
17764;BME280;22245;52.832;13.816;2022-10-31T06:48:59;101886.50;;;8.57;84.22
17764;BME280;22245;52.832;13.816;2022-10-31T06:52:51;101894.28;;;8.60;84.72
17764;BME280;22245;52.832;13.816;2022-10-31T06:56:13;101895.16;;;8.60;85.01
17764;BME280;22245;52.832;13.816;2022-10-31T06:59:40;101891.53;;;8.61;85.20
17764;BME280;22245;52.832;13.816;2022-10-31T07:03:03;101904.63;;;8.64;85.51
17764;BME280;22245;52.832;13.816;2022-10-31T07:06:35;101909.50;;;8.72;85.92
17764;BME280;22245;52.832;13.816;2022-10-31T07:10:13;101914.34;;;8.80;85.94
17764;BME280;22245;52.832;13.816;2022-10-31T07:13:44;101917.31;;;8.90;86.19
17764;BME280;22245;52.832;13.816;2022-10-31T07:17:09;101919.53;;;8.97;85.95
17764;BME280;22245;52.832;13.816;2022-10-31T07:20:52;101925.50;;;9.01;85.77
17764;BME280;22245;52.832;13.816;2022-10-31T07:24:14;101911.94;;;9.06;86.32
17764;BME280;22245;52.832;13.816;2022-10-31T07:27:37;101906.44;;;9.09;87.03
17764;BME280;22245;52.832;13.816;2022-10-31T07:31:04;101918.22;;;9.19;87.33
17764;BME280;22245;52.832;13.816;2022-10-31T07:34:25;101916.63;;;9.31;88.40
17764;BME280;22245;52.832;13.816;2022-10-31T07:38:11;101922.91;;;9.45;89.09
17764;BME280;22245;52.832;13.816;2022-10-31T07:41:33;101924.81;;;9.57;89.26
17764;BME280;22245;52.832;13.816;2022-10-31T07:45:04;101910.84;;;9.68;89.53
17764;BME280;22245;52.832;13.816;2022-10-31T07:48:46;101918.06;;;9.80;89.53
17764;BME280;22245;52.832;13.816;2022-10-31T07:52:26;101915.56;;;9.92;89.24
17764;BME280;22245;52.832;13.816;2022-10-31T07:55:56;101922.38;;;9.96;89.65
17764;BME280;22245;52.832;13.816;2022-10-31T07:59:35;101934.72;;;10.11;90.90
17764;BME280;22245;52.832;13.816;2022-10-31T08:03:00;101936.09;;;10.32;92.81
17764;BME280;22245;52.832;13.816;2022-10-31T08:06:56;101940.34;;;10.49;95.52
17764;BME280;22245;52.832;13.816;2022-10-31T08:10:25;101943.41;;;10.70;97.39
17764;BME280;22245;52.832;13.816;2022-10-31T08:13:51;101939.69;;;10.85;99.01
17764;BME280;22245;52.832;13.816;2022-10-31T08:17:14;101950.31;;;11.00;100.00
17764;BME280;22245;52.832;13.816;2022-10-31T08:20:48;101939.75;;;11.11;100.00
17764;BME280;22245;52.832;13.816;2022-10-31T08:24:14;101951.81;;;11.30;100.00
17764;BME280;22245;52.832;13.816;2022-10-31T08:27:39;101949.28;;;11.41;100.00
17764;BME280;22245;52.832;13.816;2022-10-31T08:31:10;101950.09;;;11.55;100.00
17764;BME280;22245;52.832;13.816;2022-10-31T08:34:35;101951.16;;;11.65;99.61
17764;BME280;22245;52.832;13.816;2022-10-31T08:38:27;101949.56;;;11.76;99.11
17764;BME280;22245;52.832;13.816;2022-10-31T08:41:48;101950.69;;;11.84;98.61
17764;BME280;22245;52.832;13.816;2022-10-31T08:45:10;101954.53;;;11.93;97.80
17764;BME280;22245;52.832;13.816;2022-10-31T08:48:32;101948.56;;;12.02;97.21
17764;BME280;22245;52.832;13.816;2022-10-31T08:51:56;101957.72;;;12.11;96.87
17764;BME280;22245;52.832;13.816;2022-10-31T08:55:24;101946.50;;;12.19;96.69
17764;BME280;22245;52.832;13.816;2022-10-31T08:58:57;101952.97;;;12.28;96.66
17764;BME280;22245;52.832;13.816;2022-10-31T09:02:59;101953.38;;;12.35;96.40
17764;BME280;22245;52.832;13.816;2022-10-31T09:06:24;101955.34;;;12.44;95.99
17764;BME280;22245;52.832;13.816;2022-10-31T09:09:46;101957.38;;;12.53;95.86
17764;BME280;22245;52.832;13.816;2022-10-31T09:13:12;101958.72;;;12.59;95.74
17764;BME280;22245;52.832;13.816;2022-10-31T09:16:52;101966.03;;;12.68;95.74
17764;BME280;22245;52.832;13.816;2022-10-31T09:20:22;101955.97;;;12.72;96.08
17764;BME280;22245;52.832;13.816;2022-10-31T09:23:45;101964.28;;;12.80;95.42
17764;BME280;22245;52.832;13.816;2022-10-31T09:27:08;101961.91;;;12.88;95.57
17764;BME280;22245;52.832;13.816;2022-10-31T09:30:35;101961.41;;;12.95;94.91
17764;BME280;22245;52.832;13.816;2022-10-31T09:33:57;101957.31;;;13.02;94.37
17764;BME280;22245;52.832;13.816;2022-10-31T09:37:42;101961.84;;;13.13;94.19
17764;BME280;22245;52.832;13.816;2022-10-31T09:41:12;101958.56;;;13.21;93.76
17764;BME280;22245;52.832;13.816;2022-10-31T09:44:49;101957.97;;;13.28;93.29
17764;BME280;22245;52.832;13.816;2022-10-31T09:48:52;101961.75;;;13.37;93.23
17764;BME280;22245;52.832;13.816;2022-10-31T09:52:31;101958.63;;;13.43;93.57
17764;BME280;22245;52.832;13.816;2022-10-31T09:56:12;101965.94;;;13.53;93.17
17764;BME280;22245;52.832;13.816;2022-10-31T09:59:39;101969.81;;;13.60;92.81
17764;BME280;22245;52.832;13.816;2022-10-31T10:03:09;101976.28;;;13.69;92.95
17764;BME280;22245;52.832;13.816;2022-10-31T10:06:35;101966.94;;;13.74;92.92
17764;BME280;22245;52.832;13.816;2022-10-31T10:10:46;101967.88;;;13.85;92.57
17764;BME280;22245;52.832;13.816;2022-10-31T10:14:35;101966.41;;;13.92;92.53
17764;BME280;22245;52.832;13.816;2022-10-31T10:18:07;101959.47;;;14.01;91.48
17764;BME280;22245;52.832;13.816;2022-10-31T10:21:39;101963.50;;;14.07;91.02
17764;BME280;22245;52.832;13.816;2022-10-31T10:25:15;101961.16;;;14.13;91.84
17764;BME280;22245;52.832;13.816;2022-10-31T10:28:40;101964.09;;;14.22;91.69
17764;BME280;22245;52.832;13.816;2022-10-31T10:32:09;101951.75;;;14.30;91.59
17764;BME280;22245;52.832;13.816;2022-10-31T10:35:39;101950.16;;;14.39;90.73
17764;BME280;22245;52.832;13.816;2022-10-31T10:39:09;101954.88;;;14.47;90.90
17764;BME280;22245;52.832;13.816;2022-10-31T10:42:33;101955.81;;;14.57;89.83
17764;BME280;22245;52.832;13.816;2022-10-31T10:46:19;101947.13;;;14.65;89.83
17764;BME280;22245;52.832;13.816;2022-10-31T10:49:59;101952.59;;;14.75;89.52
17764;BME280;22245;52.832;13.816;2022-10-31T10:53:40;101951.13;;;14.82;89.92
17764;BME280;22245;52.832;13.816;2022-10-31T10:57:45;101944.97;;;14.92;88.82
17764;BME280;22245;52.832;13.816;2022-10-31T11:01:12;101938.09;;;14.99;88.84
17764;BME280;22245;52.832;13.816;2022-10-31T11:04:43;101933.06;;;15.05;88.36
17764;BME280;22245;52.832;13.816;2022-10-31T11:08:26;101932.38;;;15.13;88.17
17764;BME280;22245;52.832;13.816;2022-10-31T11:11:51;101934.41;;;15.21;87.47
17764;BME280;22245;52.832;13.816;2022-10-31T11:15:24;101937.44;;;15.28;87.99
17764;BME280;22245;52.832;13.816;2022-10-31T11:18:51;101934.94;;;15.36;86.70
17764;BME280;22245;52.832;13.816;2022-10-31T11:22:23;101932.56;;;15.43;87.30
17764;BME280;22245;52.832;13.816;2022-10-31T11:26:02;101926.50;;;15.51;86.59
17764;BME280;22245;52.832;13.816;2022-10-31T11:29:25;101923.16;;;15.58;86.62
17764;BME280;22245;52.832;13.816;2022-10-31T11:32:59;101927.00;;;15.66;85.42
17764;BME280;22245;52.832;13.816;2022-10-31T11:36:25;101923.75;;;15.72;84.80
17764;BME280;22245;52.832;13.816;2022-10-31T11:39:50;101915.31;;;15.76;85.10
17764;BME280;22245;52.832;13.816;2022-10-31T11:43:17;101909.38;;;15.83;85.08
17764;BME280;22245;52.832;13.816;2022-10-31T11:46:41;101920.34;;;15.91;84.83
17764;BME280;22245;52.832;13.816;2022-10-31T11:50:09;101914.41;;;15.97;84.77
17764;BME280;22245;52.832;13.816;2022-10-31T11:53:34;101916.53;;;16.03;83.92
17764;BME280;22245;52.832;13.816;2022-10-31T11:56:56;101915.13;;;16.09;84.27
17764;BME280;22245;52.832;13.816;2022-10-31T12:00:24;101922.50;;;16.17;83.72
17764;BME280;22245;52.832;13.816;2022-10-31T12:03:54;101920.25;;;16.22;83.54
17764;BME280;22245;52.832;13.816;2022-10-31T12:07:23;101925.91;;;16.29;83.15
17764;BME280;22245;52.832;13.816;2022-10-31T12:10:57;101920.84;;;16.35;82.08
17764;BME280;22245;52.832;13.816;2022-10-31T12:14:30;101918.56;;;16.41;82.36
17764;BME280;22245;52.832;13.816;2022-10-31T12:18:17;101915.31;;;16.47;82.36
17764;BME280;22245;52.832;13.816;2022-10-31T12:21:59;101914.75;;;16.53;82.07
17764;BME280;22245;52.832;13.816;2022-10-31T12:25:35;101912.34;;;16.60;82.18
17764;BME280;22245;52.832;13.816;2022-10-31T12:29:07;101905.53;;;16.66;81.55
17764;BME280;22245;52.832;13.816;2022-10-31T12:32:39;101907.81;;;16.70;81.40
17764;BME280;22245;52.832;13.816;2022-10-31T12:36:19;101905.41;;;16.77;80.67
17764;BME280;22245;52.832;13.816;2022-10-31T12:39:49;101907.50;;;16.83;79.75
17764;BME280;22245;52.832;13.816;2022-10-31T12:43:27;101899.28;;;16.85;80.38
17764;BME280;22245;52.832;13.816;2022-10-31T12:47:03;101908.63;;;16.90;80.57
17764;BME280;22245;52.832;13.816;2022-10-31T12:50:40;101904.66;;;16.95;80.78
17764;BME280;22245;52.832;13.816;2022-10-31T12:54:18;101889.81;;;17.00;80.14
17764;BME280;22245;52.832;13.816;2022-10-31T12:57:50;101895.47;;;17.07;80.55
17764;BME280;22245;52.832;13.816;2022-10-31T13:01:17;101896.88;;;17.11;80.66
17764;BME280;22245;52.832;13.816;2022-10-31T13:04:47;101887.22;;;17.18;78.83
17764;BME280;22245;52.832;13.816;2022-10-31T13:08:14;101886.75;;;17.23;79.08
17764;BME280;22245;52.832;13.816;2022-10-31T13:11:41;101874.00;;;17.25;78.89
17764;BME280;22245;52.832;13.816;2022-10-31T13:15:11;101876.94;;;17.32;78.12
17764;BME280;22245;52.832;13.816;2022-10-31T13:18:39;101873.94;;;17.35;78.58
17764;BME280;22245;52.832;13.816;2022-10-31T13:22:05;101871.53;;;17.42;78.05
17764;BME280;22245;52.832;13.816;2022-10-31T13:25:31;101866.69;;;17.45;78.24
17764;BME280;22245;52.832;13.816;2022-10-31T13:28:59;101863.72;;;17.48;78.18
17764;BME280;22245;52.832;13.816;2022-10-31T13:32:24;101860.72;;;17.52;77.91
17764;BME280;22245;52.832;13.816;2022-10-31T13:35:52;101856.84;;;17.54;78.06
17764;BME280;22245;52.832;13.816;2022-10-31T13:39:23;101860.09;;;17.58;77.91
17764;BME280;22245;52.832;13.816;2022-10-31T13:42:57;101862.19;;;17.64;77.61
17764;BME280;22245;52.832;13.816;2022-10-31T13:46:23;101857.06;;;17.71;77.74
17764;BME280;22245;52.832;13.816;2022-10-31T13:49:45;101857.47;;;17.76;76.91
17764;BME280;22245;52.832;13.816;2022-10-31T13:53:13;101854.75;;;17.76;77.58
17764;BME280;22245;52.832;13.816;2022-10-31T13:56:35;101866.06;;;17.79;77.23
17764;BME280;22245;52.832;13.816;2022-10-31T14:00:00;101856.72;;;17.84;77.04
17764;BME280;22245;52.832;13.816;2022-10-31T14:03:33;101863.47;;;17.88;76.86
17764;BME280;22245;52.832;13.816;2022-10-31T14:07:18;101851.69;;;17.89;76.47
17764;BME280;22245;52.832;13.816;2022-10-31T14:10:48;101850.69;;;17.90;76.42
17764;BME280;22245;52.832;13.816;2022-10-31T14:14:14;101840.94;;;17.89;76.57
17764;BME280;22245;52.832;13.816;2022-10-31T14:17:46;101847.31;;;17.88;76.80
17764;BME280;22245;52.832;13.816;2022-10-31T14:21:39;101845.94;;;17.84;76.71
17764;BME280;22245;52.832;13.816;2022-10-31T14:25:23;101843.38;;;17.82;76.94
17764;BME280;22245;52.832;13.816;2022-10-31T14:28:47;101844.50;;;17.79;77.17
17764;BME280;22245;52.832;13.816;2022-10-31T14:32:19;101840.59;;;17.74;77.32
17764;BME280;22245;52.832;13.816;2022-10-31T14:35:54;101840.03;;;17.70;77.53
17764;BME280;22245;52.832;13.816;2022-10-31T14:39:20;101844.03;;;17.66;77.67
17764;BME280;22245;52.832;13.816;2022-10-31T14:46:42;101841.56;;;17.55;78.52
17764;BME280;22245;52.832;13.816;2022-10-31T14:50:21;101830.22;;;17.51;78.89
17764;BME280;22245;52.832;13.816;2022-10-31T14:53:47;101835.78;;;17.49;79.11
17764;BME280;22245;52.832;13.816;2022-10-31T14:57:15;101829.00;;;17.45;79.15
17764;BME280;22245;52.832;13.816;2022-10-31T15:00:38;101836.22;;;17.45;79.25
17764;BME280;22245;52.832;13.816;2022-10-31T15:04:05;101821.34;;;17.41;79.15
17764;BME280;22245;52.832;13.816;2022-10-31T15:07:50;101830.88;;;17.35;79.96
17764;BME280;22245;52.832;13.816;2022-10-31T15:11:18;101831.47;;;17.29;79.78
17764;BME280;22245;52.832;13.816;2022-10-31T15:14:40;101827.69;;;17.21;80.14
17764;BME280;22245;52.832;13.816;2022-10-31T15:18:04;101821.19;;;17.14;80.31
17764;BME280;22245;52.832;13.816;2022-10-31T15:21:28;101815.72;;;17.06;80.07
17764;BME280;22245;52.832;13.816;2022-10-31T15:24:50;101826.59;;;16.95;80.36
17764;BME280;22245;52.832;13.816;2022-10-31T15:28:22;101825.81;;;16.84;80.60
17764;BME280;22245;52.832;13.816;2022-10-31T15:31:51;101825.97;;;16.73;80.52
17764;BME280;22245;52.832;13.816;2022-10-31T15:35:20;101819.75;;;16.62;80.99
17764;BME280;22245;52.832;13.816;2022-10-31T15:38:47;101817.22;;;16.51;81.40
17764;BME280;22245;52.832;13.816;2022-10-31T15:42:18;101821.91;;;16.39;81.96
17764;BME280;22245;52.832;13.816;2022-10-31T15:45:42;101827.31;;;16.29;81.99
17764;BME280;22245;52.832;13.816;2022-10-31T15:49:17;101824.63;;;16.19;82.58
17764;BME280;22245;52.832;13.816;2022-10-31T15:52:43;101819.13;;;16.11;82.91
17764;BME280;22245;52.832;13.816;2022-10-31T15:56:12;101820.94;;;16.01;82.84
17764;BME280;22245;52.832;13.816;2022-10-31T15:59:37;101813.59;;;15.93;83.38
17764;BME280;22245;52.832;13.816;2022-10-31T16:03:05;101817.22;;;15.82;83.22
17764;BME280;22245;52.832;13.816;2022-10-31T16:06:27;101820.59;;;15.74;83.53
17764;BME280;22245;52.832;13.816;2022-10-31T16:09:50;101824.09;;;15.65;83.61
17764;BME280;22245;52.832;13.816;2022-10-31T16:13:14;101822.25;;;15.56;83.87
17764;BME280;22245;52.832;13.816;2022-10-31T16:16:41;101825.63;;;15.48;84.29
17764;BME280;22245;52.832;13.816;2022-10-31T16:20:04;101828.97;;;15.40;84.22
17764;BME280;22245;52.832;13.816;2022-10-31T16:23:27;101834.03;;;15.33;84.55
17764;BME280;22245;52.832;13.816;2022-10-31T16:26:53;101831.06;;;15.27;84.22
17764;BME280;22245;52.832;13.816;2022-10-31T16:30:35;101830.91;;;15.18;84.75
17764;BME280;22245;52.832;13.816;2022-10-31T16:34:14;101841.31;;;15.12;85.11
17764;BME280;22245;52.832;13.816;2022-10-31T16:37:39;101830.13;;;15.07;85.23
17764;BME280;22245;52.832;13.816;2022-10-31T16:41:04;101837.59;;;15.03;86.07
17764;BME280;22245;52.832;13.816;2022-10-31T16:44:26;101837.03;;;14.99;86.23
17764;BME280;22245;52.832;13.816;2022-10-31T16:47:51;101842.78;;;14.95;86.27
17764;BME280;22245;52.832;13.816;2022-10-31T16:51:13;101836.97;;;14.89;87.13
17764;BME280;22245;52.832;13.816;2022-10-31T16:54:35;101834.66;;;14.85;86.91
17764;BME280;22245;52.832;13.816;2022-10-31T16:57:57;101827.16;;;14.79;86.71
17764;BME280;22245;52.832;13.816;2022-10-31T17:01:19;101825.00;;;14.72;86.31
17764;BME280;22245;52.832;13.816;2022-10-31T17:04:44;101835.97;;;14.69;85.96
17764;BME280;22245;52.832;13.816;2022-10-31T17:08:11;101830.25;;;14.62;86.41
17764;BME280;22245;52.832;13.816;2022-10-31T17:11:34;101831.63;;;14.57;87.49
17764;BME280;22245;52.832;13.816;2022-10-31T17:15:15;101832.75;;;14.54;86.88
17764;BME280;22245;52.832;13.816;2022-10-31T17:18:38;101831.31;;;14.50;87.42
17764;BME280;22245;52.832;13.816;2022-10-31T17:22:04;101829.72;;;14.47;86.90
17764;BME280;22245;52.832;13.816;2022-10-31T17:25:27;101826.59;;;14.42;87.35
17764;BME280;22245;52.832;13.816;2022-10-31T17:28:51;101835.00;;;14.38;87.38
17764;BME280;22245;52.832;13.816;2022-10-31T17:32:12;101834.44;;;14.34;86.85
17764;BME280;22245;52.832;13.816;2022-10-31T17:35:35;101824.97;;;14.30;87.56
17764;BME280;22245;52.832;13.816;2022-10-31T17:39:04;101831.56;;;14.26;88.11
17764;BME280;22245;52.832;13.816;2022-10-31T17:42:29;101824.63;;;14.23;88.67
17764;BME280;22245;52.832;13.816;2022-10-31T17:45:50;101821.22;;;14.21;88.41
17764;BME280;22245;52.832;13.816;2022-10-31T17:49:11;101822.31;;;14.18;89.30
17764;BME280;22245;52.832;13.816;2022-10-31T17:52:33;101817.94;;;14.17;89.38
17764;BME280;22245;52.832;13.816;2022-10-31T17:56:01;101818.91;;;14.16;89.04
17764;BME280;22245;52.832;13.816;2022-10-31T17:59:23;101820.03;;;14.14;88.74
17764;BME280;22245;52.832;13.816;2022-10-31T18:02:48;101818.34;;;14.13;88.76
17764;BME280;22245;52.832;13.816;2022-10-31T18:06:10;101818.59;;;14.10;89.35